Copper Creek, Canada
Current Conditions -  °F | °C
As of 6:00 PM on Monday 22 Dec 2014 (Local Time) from CYKA Reporting Station
Few Clouds Few Clouds  
Wind Chill:   Ceiling: Unl
Heat Index:   Visibility: 40mi
Dew Point: -2°   Wind: 3mph
Humidity: 87%   Direction: 60°ENE
Pressure: 30.32"   Gusts: NA
Location:  50.8°N, 120.76°W
Report Text: CYKA 230200Z 06003KT 050V130 40SM FEW200 00/M02 A3032 RMK CI2 SLP285
Loading
Personal Weather Stations






























Interactive Weather Map New forecast layout! Learn more

10-Day Weather Forecast

Advertisements
Track Severe Weather on mobile